Time;durP1;ratioP1;P1;durP2;ratioP2;P2;SDS_P1;SDS_P2;PMS_P1;PMS_P2;Temp;Humidity;BMP_temperature;BMP_pressure;BME280_temperature;BME280_humidity;BME280_pressure;Samples;Min_cycle;Max_cycle;Signal;HPM_P1;HPM_P2
2023/03/30 00:00:19;;;;;;;47.92;32.35;;;;;;;-144.73;100.00;54502.13;4972844;28;20022;-72
2023/03/30 00:02:49;;;;;;;48.22;31.55;;;;;;;-144.73;100.00;54489.81;4974143;28;20409;-72
2023/03/30 00:05:16;;;;;;;54.03;31.50;;;;;;;-144.73;100.00;54489.81;4973393;28;20038;-72
2023/03/30 00:07:44;;;;;;;43.72;30.45;;;;;;;-144.73;100.00;54514.44;4991101;28;20093;-72
2023/03/30 00:10:18;;;;;;;51.65;30.95;;;;;;;-144.73;100.00;54465.16;4990314;28;20031;-71
2023/03/30 00:12:46;;;;;;;53.38;33.85;;;;;;;-144.73;100.00;54452.84;4973775;28;20037;-72
2023/03/30 00:15:14;;;;;;;46.60;30.83;;;;;;;-144.73;100.00;54434.38;4980315;28;20365;-72
2023/03/30 00:17:40;;;;;;;47.00;31.15;;;;;;;-144.73;100.00;54473.38;4973573;28;20030;-71
2023/03/30 00:20:10;;;;;;;47.35;32.47;;;;;;;-144.73;100.00;54481.59;4989936;28;20034;-70
2023/03/30 00:22:43;;;;;;;49.45;29.15;;;;;;;-144.73;100.00;54502.13;4973127;28;20069;-72
2023/03/30 00:25:11;;;;;;;49.00;30.20;;;;;;;-144.73;100.00;54506.22;4972663;28;20061;-71
2023/03/30 00:27:38;;;;;;;48.13;30.35;;;;;;;-144.73;100.00;54461.06;4973620;28;20422;-72
2023/03/30 00:30:06;;;;;;;44.20;30.48;;;;;;;-144.73;100.00;54485.69;4973283;28;20026;-72
2023/03/30 00:32:33;;;;;;;40.72;30.23;;;;;;;-144.73;100.00;54524.69;4973135;28;20042;-72
2023/03/30 00:34:58;;;;;;;48.53;31.60;;;;;;;-144.73;100.00;54520.59;4972918;28;20053;-72
2023/03/30 00:37:24;;;;;;;45.17;29.33;;;;;;;-144.73;100.00;54506.22;4989743;28;20046;-72
2023/03/30 00:39:51;;;;;;;48.92;30.98;;;;;;;-144.73;100.00;54502.13;4972880;28;20030;-72
2023/03/30 00:42:17;;;;;;;46.40;29.98;;;;;;;-144.73;100.00;54510.31;4988345;28;20030;-72
2023/03/30 00:45:16;;;;;;;42.70;28.02;;;;;;;-144.73;100.00;54481.59;4989464;28;20169;-71
2023/03/30 00:48:11;;;;;;;47.78;30.70;;;;;;;-144.73;100.00;54477.47;4970359;28;20045;-71
2023/03/30 00:50:42;;;;;;;49.40;29.00;;;;;;;-144.73;100.00;54510.31;4982752;28;20061;-71
2023/03/30 00:53:17;;;;;;;45.53;30.07;;;;;;;-144.73;100.00;54473.38;4973378;28;20031;-71
2023/03/30 00:55:44;;;;;;;44.88;28.10;;;;;;;-144.73;100.00;54498.00;4970940;28;20302;-72
2023/03/30 00:58:11;;;;;;;44.17;27.02;;;;;;;-144.73;100.00;54502.13;4972950;28;20054;-72
2023/03/30 01:00:38;;;;;;;53.10;27.77;;;;;;;-144.73;100.00;54510.31;4988737;28;20065;-71
2023/03/30 01:03:14;;;;;;;44.95;29.15;;;;;;;-144.73;100.00;54522.63;4972932;28;20030;-71
2023/03/30 01:05:41;;;;;;;42.47;28.42;;;;;;;-144.73;100.00;54483.66;4988243;28;20520;-72
2023/03/30 01:08:08;;;;;;;41.88;28.08;;;;;;;-144.73;100.00;54489.81;4990029;28;20070;-72
2023/03/30 01:10:34;;;;;;;39.67;26.67;;;;;;;-144.73;100.00;54493.91;4972190;28;20049;-72
2023/03/30 01:13:00;;;;;;;42.03;26.35;;;;;;;-144.73;100.00;54473.38;4988415;28;20026;-71
2023/03/30 01:15:32;;;;;;;42.00;27.88;;;;;;;-144.73;100.00;54514.44;4975626;28;20030;-72
2023/03/30 01:18:07;;;;;;;;;;;;;;;-144.73;100.00;54485.69;4975997;28;20030;-72
2023/03/30 01:20:57;;;;;;;41.25;27.13;;;;;;;-144.73;100.00;54493.91;4991746;28;19920;-72
2023/03/30 01:24:09;;;;;;;38.83;26.25;;;;;;;-144.73;100.00;54506.22;4968673;28;20327;-72
2023/03/30 01:26:46;;;;;;;36.30;25.63;;;;;;;-144.73;100.00;54493.91;4988836;28;20121;-73
2023/03/30 01:29:20;;;;;;;43.15;27.58;;;;;;;-144.73;100.00;54481.59;4972131;28;20034;-72
2023/03/30 01:32:24;;;;;;;37.95;25.55;;;;;;;-144.73;100.00;54489.81;4987867;28;20030;-72
2023/03/30 01:35:07;;;;;;;42.63;27.30;;;;;;;-144.73;100.00;54504.16;4970816;28;20057;-72
2023/03/30 01:37:57;;;;;;;45.90;28.10;;;;;;;-144.73;100.00;54456.97;4984960;28;20125;-72
2023/03/30 01:41:03;;;;;;;47.97;26.42;;;;;;;-144.73;100.00;54440.53;4966874;28;20539;-72
2023/03/30 01:43:56;;;;;;;43.08;27.15;;;;;;;-144.73;100.00;54456.97;4961337;28;20030;-72
2023/03/30 01:46:29;;;;;;;44.78;27.27;;;;;;;-144.73;100.00;54493.91;4971222;28;20026;-72
2023/03/30 01:49:36;;;;;;;44.90;26.67;;;;;;;-144.73;100.00;54510.31;4988175;28;20027;-72
2023/03/30 01:52:41;;;;;;;40.78;26.90;;;;;;;-144.73;100.00;54485.69;4912935;29;20028;-72
2023/03/30 01:55:16;;;;;;;48.25;29.05;;;;;;;-144.73;100.00;54498.00;4912515;29;20047;-72
2023/03/30 01:57:55;;;;;;;49.22;28.35;;;;;;;-144.73;100.00;54518.53;4966241;28;20042;-73
2023/03/30 02:00:23;;;;;;;47.97;28.77;;;;;;;-144.73;100.00;54510.31;4971458;28;20022;-71
2023/03/30 02:03:15;;;;;;;52.10;28.60;;;;;;;-144.73;100.00;54461.06;4972057;28;20037;-71
2023/03/30 02:05:45;;;;;;;51.15;30.27;;;;;;;-144.73;100.00;54485.69;4987651;28;20034;-71
2023/03/30 02:08:18;;;;;;;55.72;31.08;;;;;;;-144.73;100.00;54498.00;4971946;28;20556;-71
2023/03/30 02:10:46;;;;;;;54.35;29.90;;;;;;;-144.73;100.00;54469.28;4988614;28;20084;-72
2023/03/30 02:13:12;;;;;;;58.67;31.85;;;;;;;-144.73;100.00;54452.84;4977141;28;20029;-72
2023/03/30 02:15:41;;;;;;;51.80;31.23;;;;;;;-144.73;100.00;54438.50;4971437;28;20093;-72
2023/03/30 02:18:07;;;;;;;52.22;31.52;;;;;;;-144.73;100.00;54461.06;4971899;28;20026;-72
2023/03/30 02:20:34;;;;;;;61.45;34.00;;;;;;;-144.73;100.00;54479.53;4988939;28;20038;-70
2023/03/30 02:23:00;;;;;;;52.13;31.50;;;;;;;-144.73;100.00;54485.69;4971945;28;20026;-71
2023/03/30 02:25:26;;;;;;;54.05;32.60;;;;;;;-144.73;100.00;54514.44;4970977;28;20466;-72
2023/03/30 02:27:52;;;;;;;49.03;31.00;;;;;;;-144.73;100.00;54489.81;4981188;28;20096;-72
2023/03/30 02:30:18;;;;;;;56.92;33.35;;;;;;;-144.73;100.00;54485.69;4967322;28;20034;-71
2023/03/30 02:32:45;;;;;;;56.38;32.78;;;;;;;-144.73;100.00;54493.91;4989002;28;20026;-72
2023/03/30 02:35:18;;;;;;;53.60;32.33;;;;;;;-144.73;100.00;54481.59;4986723;28;20046;-72
2023/03/30 02:37:43;;;;;;;52.30;32.33;;;;;;;-144.73;100.00;54555.47;4971491;28;20041;-72
2023/03/30 02:40:46;;;;;;;58.28;33.33;;;;;;;-144.73;100.00;54485.69;4986966;28;20043;-72
2023/03/30 02:43:30;;;;;;;59.47;32.80;;;;;;;-144.73;100.00;54477.47;4990901;28;20121;-72
2023/03/30 02:46:22;;;;;;;60.35;34.53;;;;;;;-144.73;100.00;54493.91;4974010;28;20397;-72
2023/03/30 02:49:15;;;;;;;56.53;33.55;;;;;;;-144.73;100.00;54510.31;4973190;28;20568;-72
2023/03/30 02:51:52;;;;;;;58.83;33.03;;;;;;;-144.73;100.00;54481.59;4988224;28;20142;-72
2023/03/30 02:54:22;;;;;;;60.35;34.53;;;;;;;-144.73;100.00;54506.22;4973973;28;20038;-72
2023/03/30 02:57:00;;;;;;;54.45;33.72;;;;;;;-144.73;100.00;54502.13;4990377;28;20490;-72
2023/03/30 02:59:31;;;;;;;57.03;33.55;;;;;;;-144.73;100.00;54522.63;4988211;28;20022;-72
2023/03/30 03:02:08;;;;;;;55.30;31.38;;;;;;;-144.73;100.00;54477.47;4975843;28;20129;-71
2023/03/30 03:04:34;;;;;;;61.08;33.38;;;;;;;-144.73;100.00;54506.22;4991196;28;20026;-72
2023/03/30 03:07:01;;;;;;;61.33;34.22;;;;;;;-144.73;100.00;54526.75;4991381;28;20041;-71
2023/03/30 03:09:27;;;;;;;55.13;31.95;;;;;;;-144.73;100.00;54493.91;4991382;28;20037;-71
2023/03/30 03:11:55;;;;;;;49.30;31.67;;;;;;;-144.73;100.00;54469.28;4990542;28;20077;-71
2023/03/30 03:14:20;;;;;;;59.28;32.22;;;;;;;-144.73;100.00;54473.38;4974564;28;20054;-72
2023/03/30 03:16:46;;;;;;;63.00;32.13;;;;;;;-144.73;100.00;54502.13;4974241;28;20078;-72
2023/03/30 03:19:11;;;;;;;55.85;32.47;;;;;;;-144.73;100.00;54493.91;4991881;28;20031;-72
2023/03/30 03:21:36;;;;;;;51.08;30.85;;;;;;;-144.73;100.00;54469.28;4990004;28;20136;-72
2023/03/30 03:24:02;;;;;;;59.58;32.00;;;;;;;-144.73;100.00;54506.22;4991394;28;20022;-72
2023/03/30 03:26:28;;;;;;;49.83;30.45;;;;;;;-144.73;100.00;54463.13;4974134;28;20031;-71
2023/03/30 03:28:54;;;;;;;60.80;32.63;;;;;;;-144.73;100.00;54502.13;4973998;28;20040;-72
2023/03/30 03:31:20;;;;;;;57.00;33.55;;;;;;;-144.73;100.00;54518.53;4989378;28;20153;-72
2023/03/30 03:33:46;;;;;;;58.17;32.65;;;;;;;-144.73;100.00;54477.47;4993311;28;20473;-72
2023/03/30 03:36:11;;;;;;;52.78;31.42;;;;;;;-144.73;100.00;54510.31;4990874;28;20088;-72
2023/03/30 03:38:37;;;;;;;73.28;34.55;;;;;;;-144.73;100.00;54514.44;4974335;28;20030;-73
2023/03/30 03:41:03;;;;;;;61.47;33.28;;;;;;;-144.73;100.00;54510.31;4990617;28;20428;-72
2023/03/30 03:43:33;;;;;;;56.85;33.33;;;;;;;-144.73;100.00;54506.22;4991999;28;20030;-72
2023/03/30 03:45:58;;;;;;;61.78;32.67;;;;;;;-144.73;100.00;54487.75;4979391;28;20045;-72
2023/03/30 03:48:24;;;;;;;64.20;32.80;;;;;;;-144.73;100.00;54487.75;4973945;28;20080;-72
2023/03/30 03:50:52;;;;;;;50.28;30.35;;;;;;;-144.73;100.00;54493.91;4990324;28;20042;-72
2023/03/30 03:53:18;;;;;;;62.20;32.55;;;;;;;-144.73;100.00;54493.91;4990594;28;20026;-72
2023/03/30 03:55:44;;;;;;;57.97;31.17;;;;;;;-144.73;100.00;54514.44;4972557;28;20042;-72
2023/03/30 03:58:10;;;;;;;61.03;32.72;;;;;;;-144.73;100.00;54502.13;4985044;28;20096;-71
2023/03/30 04:00:35;;;;;;;51.55;29.40;;;;;;;-144.73;100.00;54498.00;4988903;28;20035;-72
2023/03/30 04:03:03;;;;;;;63.55;31.55;;;;;;;-144.73;100.00;54512.38;4989954;28;20062;-72
2023/03/30 04:05:28;;;;;;;50.60;29.40;;;;;;;-144.73;100.00;54481.59;4973142;28;20052;-72
2023/03/30 04:07:55;;;;;;;55.22;29.65;;;;;;;-144.73;100.00;54506.22;4971321;28;20120;-72
2023/03/30 04:10:21;;;;;;;50.90;28.42;;;;;;;-144.73;100.00;54502.13;4991798;28;20026;-71
2023/03/30 04:12:46;;;;;;;56.58;30.30;;;;;;;-144.73;100.00;54518.53;4977026;28;20030;-71
2023/03/30 04:15:12;;;;;;;47.47;29.65;;;;;;;-144.73;100.00;54498.00;4990562;28;20037;-72
2023/03/30 04:17:37;;;;;;;49.80;30.20;;;;;;;-144.73;100.00;54514.44;4973381;28;20022;-72
2023/03/30 04:20:07;;;;;;;46.78;29.02;;;;;;;-144.73;100.00;54502.13;4990544;28;20136;-71
2023/03/30 04:22:34;;;;;;;45.03;28.08;;;;;;;-144.73;100.00;54504.16;4991335;28;20067;-72
2023/03/30 04:25:00;;;;;;;59.25;29.73;;;;;;;-144.73;100.00;54510.31;4972830;28;20516;-72
2023/03/30 04:27:27;;;;;;;49.42;29.98;;;;;;;-144.73;100.00;54500.06;4990115;28;20030;-72
2023/03/30 04:29:56;;;;;;;47.40;28.80;;;;;;;-144.73;100.00;54502.13;4973135;28;20034;-72
2023/03/30 04:32:23;;;;;;;49.40;28.05;;;;;;;-144.73;100.00;54514.44;4972854;28;20026;-71
2023/03/30 04:34:53;;;;;;;45.25;28.63;;;;;;;-144.73;100.00;54518.53;4990321;28;20061;-72
2023/03/30 04:37:22;;;;;;;46.03;28.10;;;;;;;-144.73;100.00;54524.69;4972658;28;20126;-72
2023/03/30 04:39:49;;;;;;;50.65;29.17;;;;;;;-144.73;100.00;54502.13;4972703;28;20034;-73
2023/03/30 04:42:18;;;;;;;48.75;26.70;;;;;;;-144.73;100.00;54512.38;4972403;28;20042;-71
2023/03/30 04:44:44;;;;;;;50.20;28.58;;;;;;;-144.73;100.00;54498.00;4972231;28;20152;-72
2023/03/30 04:47:09;;;;;;;46.80;29.77;;;;;;;-144.73;100.00;54551.38;4966834;28;20046;-72
2023/03/30 04:49:35;;;;;;;50.00;28.38;;;;;;;-144.73;100.00;54508.28;4985493;28;20062;-72
2023/03/30 04:52:00;;;;;;;42.60;26.88;;;;;;;-144.73;100.00;54506.22;4971056;28;20121;-72
2023/03/30 04:54:25;;;;;;;47.80;25.85;;;;;;;-144.73;100.00;54530.84;4985523;28;20076;-72
2023/03/30 04:56:51;;;;;;;44.08;26.02;;;;;;;-144.73;100.00;54604.75;4989617;28;20084;-72
2023/03/30 04:59:16;;;;;;;48.63;27.30;;;;;;;-144.73;100.00;54510.31;4988817;28;20771;-73
2023/03/30 05:01:42;;;;;;;45.42;25.17;;;;;;;-144.73;100.00;54555.47;4988610;28;20031;-73
2023/03/30 05:04:07;;;;;;;49.40;27.55;;;;;;;-144.73;100.00;54516.47;4972657;28;20033;-73
2023/03/30 05:06:38;;;;;;;48.22;26.33;;;;;;;-144.73;100.00;54539.06;4972108;28;20052;-72
2023/03/30 05:09:03;;;;;;;44.38;26.30;;;;;;;-144.73;100.00;54510.31;4973417;28;20029;-73
2023/03/30 05:11:29;;;;;;;41.40;23.73;;;;;;;-144.73;100.00;54604.75;4989629;28;20042;-73
2023/03/30 05:13:54;;;;;;;43.20;25.98;;;;;;;-144.73;100.00;54491.84;4972536;28;20057;-73
2023/03/30 05:16:21;;;;;;;42.35;27.48;;;;;;;-144.73;100.00;54493.91;4987842;28;20073;-73
2023/03/30 05:18:49;;;;;;;45.42;24.63;;;;;;;-144.73;100.00;54506.22;4972455;28;20097;-74
2023/03/30 05:21:15;;;;;;;41.03;26.17;;;;;;;-144.73;100.00;54465.16;4971704;28;20142;-72
2023/03/30 05:23:41;;;;;;;47.90;25.15;;;;;;;-144.73;100.00;54485.69;4972375;28;20022;-73
2023/03/30 05:26:07;;;;;;;46.28;25.50;;;;;;;-144.73;100.00;54465.16;4987858;28;20401;-72
2023/03/30 05:28:33;;;;;;;40.08;23.75;;;;;;;-144.73;100.00;54489.81;4972096;28;20034;-72
2023/03/30 05:30:59;;;;;;;41.78;23.52;;;;;;;-144.73;100.00;54477.47;4969088;28;20034;-72
2023/03/30 05:33:24;;;;;;;44.10;24.77;;;;;;;-144.73;100.00;54510.31;4990371;28;20089;-72
2023/03/30 05:35:50;;;;;;;45.97;25.33;;;;;;;-144.73;100.00;54526.75;4970531;28;20520;-74
2023/03/30 05:38:16;;;;;;;43.65;23.60;;;;;;;-144.73;100.00;54491.84;4989496;28;20080;-72
2023/03/30 05:40:41;;;;;;;49.30;24.15;;;;;;;-144.73;100.00;54518.53;4970759;28;20058;-72
2023/03/30 05:43:07;;;;;;;45.58;22.77;;;;;;;-144.73;100.00;54498.00;4989402;28;20030;-71
2023/03/30 05:45:32;;;;;;;38.40;22.17;;;;;;;-144.73;100.00;54522.63;4971362;28;20042;-72
2023/03/30 05:47:57;;;;;;;39.55;22.95;;;;;;;-144.73;100.00;54510.31;4971966;28;20114;-71
2023/03/30 05:50:23;;;;;;;39.22;22.42;;;;;;;-144.73;100.00;54506.22;4971798;28;20034;-73
2023/03/30 05:52:48;;;;;;;36.28;21.50;;;;;;;-144.73;100.00;54477.47;4972429;28;20041;-72
2023/03/30 05:55:14;;;;;;;38.65;21.33;;;;;;;-144.73;100.00;54495.97;4984216;28;20084;-71
2023/03/30 05:57:40;;;;;;;38.97;20.90;;;;;;;-144.73;100.00;54522.63;4971430;28;20023;-71
2023/03/30 06:00:06;;;;;;;38.63;20.98;;;;;;;-144.73;100.00;54485.69;4970804;28;20476;-72
2023/03/30 06:02:32;;;;;;;36.85;20.00;;;;;;;-144.73;100.00;54502.13;4971620;28;20051;-71
2023/03/30 06:04:57;;;;;;;36.95;19.10;;;;;;;-144.73;100.00;54522.63;4988679;28;20065;-73
2023/03/30 06:07:23;;;;;;;33.50;19.65;;;;;;;-144.73;100.00;54547.28;4969149;28;20031;-74
2023/03/30 06:09:49;;;;;;;33.88;19.70;;;;;;;-144.73;100.00;54493.91;4989158;28;20216;-75
2023/03/30 06:12:14;;;;;;;45.28;25.40;;;;;;;-144.73;100.00;54539.06;4987386;28;20113;-77
2023/03/30 06:14:40;;;;;;;40.95;22.90;;;;;;;-144.73;100.00;54510.31;4973181;28;20525;-77
2023/03/30 06:17:06;;;;;;;56.25;27.95;;;;;;;-144.73;100.00;54502.13;4995922;28;20072;-76
2023/03/30 06:19:31;;;;;;;46.55;24.00;;;;;;;-144.73;100.00;54522.63;4975874;28;20037;-77
2023/03/30 06:21:57;;;;;;;50.47;25.48;;;;;;;-144.73;100.00;54463.13;4976170;28;20085;-77
2023/03/30 06:24:22;;;;;;;49.20;26.70;;;;;;;-144.73;100.00;54539.06;4991837;28;20014;-76
2023/03/30 06:26:48;;;;;;;56.20;26.40;;;;;;;-144.73;100.00;54522.63;4976251;28;20034;-77
2023/03/30 06:29:20;;;;;;;66.55;26.88;;;;;;;-144.73;100.00;54559.59;4976570;28;20037;-77
2023/03/30 06:31:46;;;;;;;48.03;23.90;;;;;;;-144.73;100.00;54510.31;4976030;28;20121;-71
2023/03/30 06:34:12;;;;;;;54.53;23.58;;;;;;;-144.73;100.00;54567.81;4994440;28;20370;-70
2023/03/30 06:36:37;;;;;;;45.25;23.45;;;;;;;-144.73;100.00;54604.75;4992852;28;20030;-71
2023/03/30 06:39:04;;;;;;;40.28;23.48;;;;;;;-144.73;100.00;54516.47;4994808;28;20026;-71
2023/03/30 06:41:30;;;;;;;46.58;23.13;;;;;;;-144.73;100.00;54604.75;4993375;28;20050;-71
2023/03/30 06:43:55;;;;;;;41.00;23.38;;;;;;;-144.73;100.00;54489.81;4993658;28;20022;-70
2023/03/30 06:46:20;;;;;;;40.38;23.20;;;;;;;-144.73;100.00;54514.44;4993374;28;20045;-70
2023/03/30 06:48:46;;;;;;;42.35;22.20;;;;;;;-144.73;100.00;54547.28;4994917;28;20026;-71
2023/03/30 06:51:13;;;;;;;42.50;21.75;;;;;;;-144.73;100.00;54518.53;4978055;28;20442;-70
2023/03/30 06:53:38;;;;;;;44.08;21.83;;;;;;;-144.73;100.00;54549.31;4976972;28;20065;-69
2023/03/30 06:56:05;;;;;;;33.80;20.30;;;;;;;-144.73;100.00;54514.44;4977765;28;20081;-70
2023/03/30 06:58:32;;;;;;;41.95;21.67;;;;;;;-144.73;100.00;54549.31;4987613;28;20125;-68
2023/03/30 07:00:57;;;;;;;37.70;19.00;;;;;;;-144.73;100.00;54539.06;4987970;28;20046;-68
2023/03/30 07:03:23;;;;;;;38.78;21.00;;;;;;;-144.73;100.00;54481.59;4969299;28;20030;-68
2023/03/30 07:05:49;;;;;;;40.15;20.73;;;;;;;-144.73;100.00;54547.28;4971490;28;20092;-68
2023/03/30 07:08:16;;;;;;;37.13;19.02;;;;;;;-144.73;100.00;54500.06;4989063;28;20117;-68
2023/03/30 07:10:41;;;;;;;34.17;17.52;;;;;;;-144.73;100.00;54493.91;4981412;28;20034;-68
2023/03/30 07:13:07;;;;;;;36.20;17.23;;;;;;;-144.73;100.00;54510.31;4988791;28;20022;-68
2023/03/30 07:15:33;;;;;;;32.13;16.55;;;;;;;-144.73;100.00;54479.53;4969671;28;20401;-68
2023/03/30 07:17:58;;;;;;;43.40;17.40;;;;;;;-144.73;100.00;54516.47;4972083;28;20029;-68
2023/03/30 07:20:24;;;;;;;39.35;17.88;;;;;;;-144.73;100.00;54502.13;4987228;28;20037;-68
2023/03/30 07:22:50;;;;;;;33.33;17.48;;;;;;;-144.73;100.00;54502.13;4971732;28;20453;-68
2023/03/30 07:25:16;;;;;;;28.02;14.98;;;;;;;-144.73;100.00;54498.00;4969628;28;20026;-68
2023/03/30 07:27:41;;;;;;;36.22;15.50;;;;;;;-144.73;100.00;54481.59;4970821;28;20030;-68
2023/03/30 07:30:09;;;;;;;29.25;14.85;;;;;;;-144.73;100.00;54493.91;4986975;28;20034;-68
2023/03/30 07:32:35;;;;;;;38.30;15.82;;;;;;;-144.73;100.00;54506.22;4986697;28;20026;-70
2023/03/30 07:35:00;;;;;;;33.55;14.60;;;;;;;-144.73;100.00;54514.44;4989137;28;20081;-71
2023/03/30 07:37:27;;;;;;;30.15;13.70;;;;;;;-144.73;100.00;54477.47;4969673;28;20069;-70
2023/03/30 07:39:53;;;;;;;32.78;14.45;;;;;;;-144.73;100.00;54524.69;4971294;28;20022;-68
2023/03/30 07:42:18;;;;;;;29.40;14.20;;;;;;;-144.73;100.00;54485.69;4986772;28;20092;-70
2023/03/30 07:44:44;;;;;;;34.58;13.65;;;;;;;-144.73;100.00;54477.47;4970426;28;20117;-69
2023/03/30 07:47:09;;;;;;;29.75;13.50;;;;;;;-144.73;100.00;54518.53;4970791;28;20031;-69
2023/03/30 07:49:35;;;;;;;34.42;14.68;;;;;;;-144.73;100.00;54514.44;4970011;28;20022;-69
2023/03/30 07:52:01;;;;;;;35.05;14.07;;;;;;;-144.73;100.00;54506.22;4970032;28;20053;-68
2023/03/30 07:54:27;;;;;;;27.67;13.00;;;;;;;-144.73;100.00;54473.38;4987443;28;20022;-71
2023/03/30 07:56:53;;;;;;;30.17;12.93;;;;;;;-144.73;100.00;54477.47;4972155;28;20045;-69
2023/03/30 07:59:19;;;;;;;24.98;12.00;;;;;;;-144.73;100.00;54539.06;4969297;28;20471;-70
2023/03/30 08:01:45;;;;;;;24.98;9.57;;;;;;;-144.73;100.00;54489.81;4969411;28;20035;-70
2023/03/30 08:04:12;;;;;;;21.88;8.93;;;;;;;-144.73;100.00;54604.75;4987914;28;20050;-68
2023/03/30 08:06:38;;;;;;;30.13;9.38;;;;;;;-144.73;100.00;54514.44;4970774;28;20122;-68
2023/03/30 08:09:04;;;;;;;20.38;9.80;;;;;;;-144.73;100.00;54563.69;4987283;28;20058;-68
2023/03/30 08:11:30;;;;;;;23.50;9.90;;;;;;;-144.73;100.00;54543.16;4986949;28;20497;-67
2023/03/30 08:13:56;;;;;;;23.00;8.15;;;;;;;-144.73;100.00;54551.38;4969731;28;20018;-69
2023/03/30 08:16:22;;;;;;;21.98;8.32;;;;;;;-144.73;100.00;54518.53;4986846;28;20041;-68
2023/03/30 08:18:47;;;;;;;20.35;8.05;;;;;;;-144.73;100.00;54477.47;4969851;28;20054;-67
2023/03/30 08:21:13;;;;;;;23.23;6.63;;;;;;;-144.73;100.00;54539.06;4973215;28;20144;-67
2023/03/30 08:23:38;;;;;;;18.02;6.85;;;;;;;-144.73;99.74;54555.47;4970093;28;20040;-68
2023/03/30 08:26:04;;;;;;;27.95;7.45;;;;;;;-144.73;98.72;54522.63;4968503;28;20026;-68
2023/03/30 08:28:29;;;;;;;14.48;6.68;;;;;;;-144.73;98.23;54547.28;4986153;28;20022;-68
2023/03/30 08:31:01;;;;;;;14.27;5.72;;;;;;;-144.73;97.14;54493.91;4987614;28;20049;-68
2023/03/30 08:33:27;;;;;;;18.77;6.05;;;;;;;-144.73;96.82;54522.63;4981703;28;20052;-68
2023/03/30 08:35:52;;;;;;;18.58;6.35;;;;;;;-144.73;96.27;54510.31;4985353;28;20058;-68
2023/03/30 08:38:18;;;;;;;15.98;5.30;;;;;;;-144.73;95.73;54502.13;4985695;28;20033;-67
2023/03/30 08:40:48;;;;;;;26.17;5.80;;;;;;;-144.73;96.06;54493.91;4967396;28;20044;-67
2023/03/30 08:43:26;;;;;;;18.15;6.07;;;;;;;-144.73;97.60;54518.53;4969091;28;20049;-68
2023/03/30 08:45:52;;;;;;;16.02;5.90;;;;;;;-144.73;98.80;54528.81;4968865;28;20034;-68
2023/03/30 08:48:24;;;;;;;18.15;5.70;;;;;;;-144.73;98.32;54524.69;4969877;28;20412;-68
2023/03/30 08:50:59;;;;;;;27.38;5.45;;;;;;;-144.73;98.70;54506.22;4971717;28;20046;-69
2023/03/30 08:53:28;;;;;;;15.50;6.22;;;;;;;-144.73;99.01;54522.63;4985761;28;20038;-70
2023/03/30 08:56:09;;;;;;;18.55;6.07;;;;;;;-144.73;100.00;54506.22;4985286;28;20045;-69
2023/03/30 08:59:05;;;;;;;14.98;5.78;;;;;;;-144.73;100.00;54479.53;4967306;28;20026;-70
2023/03/30 09:01:46;;;;;;;14.80;6.25;;;;;;;-144.73;98.91;54508.28;4978004;28;20027;-69
2023/03/30 09:04:37;;;;;;;15.55;6.47;;;;;;;-144.73;99.09;54510.31;4982992;28;20117;-69
2023/03/30 09:07:06;;;;;;;21.08;5.75;;;;;;;-144.73;98.00;54485.69;4981630;28;20041;-68
2023/03/30 09:09:38;;;;;;;14.65;6.50;;;;;;;-144.73;97.34;54551.38;4971554;28;20136;-68
2023/03/30 09:12:11;;;;;;;20.70;5.50;;;;;;;-144.73;96.07;54452.84;4966983;28;20042;-68
2023/03/30 09:14:44;;;;;;;16.17;5.88;;;;;;;-144.73;96.18;54498.00;4984368;28;20022;-69
2023/03/30 09:17:24;;;;;;;13.05;5.50;;;;;;;-144.73;96.01;54491.84;4984643;28;20030;-69
2023/03/30 09:20:00;;;;;;;19.67;5.88;;;;;;;-144.73;93.48;54498.00;4985080;28;20054;-69
2023/03/30 09:22:36;;;;;;;26.55;5.97;;;;;;;-144.73;93.42;54528.81;4985030;28;20108;-69
2023/03/30 09:25:04;;;;;;;19.88;5.97;;;;;;;-144.73;93.09;54510.31;4981132;28;20070;-68
2023/03/30 09:27:45;;;;;;;15.25;5.45;;;;;;;-144.73;92.81;54493.91;4970823;28;20065;-68
2023/03/30 09:30:25;;;;;;;13.52;5.22;;;;;;;-144.73;92.70;54526.75;4980782;28;20026;-68
2023/03/30 09:33:03;;;;;;;20.67;5.38;;;;;;;-144.73;91.10;54551.38;4973747;28;20088;-68
2023/03/30 09:35:38;;;;;;;17.10;5.45;;;;;;;-144.73;90.89;54500.06;4982028;28;20031;-68
2023/03/30 09:38:04;;;;;;;25.67;5.22;;;;;;;-144.73;90.99;54543.16;4981679;28;20033;-68
2023/03/30 09:41:05;;;;;;;19.30;6.07;;;;;;;-144.73;91.26;54510.31;4970916;28;20042;-68
2023/03/30 09:43:45;;;;;;;19.60;5.07;;;;;;;-144.73;92.39;54543.16;4967644;28;20072;-68
2023/03/30 09:46:13;;;;;;;16.75;5.03;;;;;;;-144.73;93.05;54555.47;4979459;28;20128;-69
2023/03/30 09:48:45;;;;;;;18.77;5.43;;;;;;;-144.73;93.01;54518.53;4969691;28;20030;-68
2023/03/30 09:51:27;;;;;;;12.88;4.90;;;;;;;-144.73;93.53;54516.47;4957266;28;20062;-68
2023/03/30 09:54:05;;;;;;;18.63;5.38;;;;;;;-144.73;92.73;54530.84;4977135;28;20030;-68
2023/03/30 09:56:48;;;;;;;11.48;4.68;;;;;;;-144.73;91.60;54481.59;4961650;28;20175;-67
2023/03/30 09:59:35;;;;;;;20.48;5.30;;;;;;;-144.73;91.25;54518.53;4973656;28;20026;-69
2023/03/30 10:02:16;;;;;;;16.23;5.68;;;;;;;-144.73;90.60;54506.22;4976874;28;20066;-70
2023/03/30 10:04:57;;;;;;;13.40;4.60;;;;;;;-144.73;89.24;54498.00;4963297;28;20026;-68
2023/03/30 10:07:25;;;;;;;17.35;5.78;;;;;;;-144.73;87.43;54493.91;4990807;28;20042;-68
2023/03/30 10:09:51;;;;;;;25.73;5.40;;;;;;;-144.73;87.43;54477.47;4974197;28;20026;-68
2023/03/30 10:12:17;;;;;;;10.00;4.30;;;;;;;-144.73;87.05;54514.44;4982408;28;20092;-69
2023/03/30 10:14:43;;;;;;;22.45;4.43;;;;;;;-144.73;85.55;54465.16;4972130;28;20027;-68
2023/03/30 10:17:23;;;;;;;17.15;4.53;;;;;;;-144.73;85.73;54489.81;4987022;28;20054;-69
2023/03/30 10:19:52;;;;;;;12.35;4.97;;;;;;;-144.73;84.38;54465.16;4978934;28;20014;-69
2023/03/30 10:22:21;;;;;;;13.35;4.28;;;;;;;-144.73;83.91;54604.75;4970031;28;20034;-69
2023/03/30 10:24:54;;;;;;;10.77;3.53;;;;;;;-144.73;84.72;54498.00;4971104;28;20034;-69
2023/03/30 10:27:26;;;;;;;8.25;3.70;;;;;;;-144.73;84.53;54516.47;4988503;28;20038;-70
2023/03/30 10:29:52;;;;;;;17.45;4.15;;;;;;;-144.73;84.08;54502.13;4988436;28;20026;-68
2023/03/30 10:32:20;;;;;;;13.32;3.75;;;;;;;-144.73;82.45;54506.22;4952882;28;20049;-69
2023/03/30 10:34:48;;;;;;;15.50;4.97;;;;;;;-144.73;82.55;54477.47;4971596;28;20117;-68
2023/03/30 10:37:27;;;;;;;16.73;4.25;;;;;;;-144.73;82.68;54539.06;4985709;28;20138;-69
2023/03/30 10:39:54;;;;;;;15.57;4.03;;;;;;;-144.73;82.37;54510.31;4988077;28;20058;-69
2023/03/30 10:42:24;;;;;;;11.23;4.15;;;;;;;-144.73;82.53;54508.28;4987854;28;20118;-69
2023/03/30 10:44:55;;;;;;;10.07;3.92;;;;;;;-144.73;83.43;54506.22;4971396;28;20023;-69
2023/03/30 10:47:39;;;;;;;15.35;3.88;;;;;;;-144.73;83.48;54502.13;4987855;28;20038;-68
2023/03/30 10:50:28;;;;;;;9.95;4.00;;;;;;;-144.73;82.62;54485.69;4971823;28;20481;-69
2023/03/30 10:53:19;;;;;;;18.95;4.55;;;;;;;-144.73;81.13;54475.44;4970907;28;20124;-68
2023/03/30 10:56:11;;;;;;;8.02;3.10;;;;;;;-144.73;79.98;54485.69;4985804;28;20092;-68
2023/03/30 10:58:55;;;;;;;;;;;;;;;-144.73;79.63;54518.53;4989968;28;20042;-68
2023/03/30 11:01:48;;;;;;;15.98;3.90;;;;;;;-144.73;80.00;54543.16;4971303;28;19925;-68
2023/03/30 11:04:21;;;;;;;14.15;3.58;;;;;;;-144.73;79.28;54481.59;4967721;28;20469;-69
2023/03/30 11:06:51;;;;;;;16.25;3.10;;;;;;;-144.73;78.18;54473.38;4969635;28;20034;-69
2023/03/30 11:09:23;;;;;;;19.70;3.65;;;;;;;-144.73;78.36;54500.06;4946001;28;20064;-69
2023/03/30 11:11:53;;;;;;;14.07;3.38;;;;;;;-144.73;78.16;54506.22;4971018;28;20026;-69
2023/03/30 11:14:29;;;;;;;16.90;4.13;;;;;;;-144.73;77.98;54508.28;4969593;28;20045;-69